Time;durP1;ratioP1;P1;durP2;ratioP2;P2;SDS_P1;SDS_P2;PMS_P1;PMS_P2;Temp;Humidity;BMP_temperature;BMP_pressure;BME280_temperature;BME280_humidity;BME280_pressure;Samples;Min_cycle;Max_cycle;Signal;HPM_P1;HPM_P2
2023/06/30 03:18:22;;;;;;;16.05;7.38;;;20.20;99.90;;;;;;6127277;22;82470;-70
2023/06/30 03:20:49;;;;;;;15.52;7.05;;;20.10;99.90;;;;;;6132173;23;81790;-70
2023/06/30 03:23:15;;;;;;;15.02;7.28;;;20.00;99.90;;;;;;6131360;23;82894;-69
2023/06/30 03:25:41;;;;;;;16.33;6.95;;;20.00;99.90;;;;;;6131403;23;83182;-70
2023/06/30 03:28:07;;;;;;;15.27;7.07;;;20.00;99.90;;;;;;6130667;23;82884;-70
2023/06/30 03:30:32;;;;;;;17.95;7.70;;;20.00;99.90;;;;;;6127915;23;82488;-69
2023/06/30 03:32:58;;;;;;;14.55;6.75;;;20.10;99.90;;;;;;6130717;23;82644;-69
2023/06/30 03:35:24;;;;;;;17.02;7.47;;;20.10;99.90;;;;;;6130895;23;83905;-69
2023/06/30 03:37:49;;;;;;;17.38;7.28;;;20.10;99.90;;;;;;6131512;23;82207;-68
2023/06/30 03:40:15;;;;;;;15.85;7.25;;;20.20;99.90;;;;;;6131048;23;82337;-69
2023/06/30 03:42:41;;;;;;;14.48;6.88;;;20.20;99.90;;;;;;6128231;23;82667;-69
2023/06/30 03:45:07;;;;;;;19.88;7.43;;;20.10;99.90;;;;;;6131230;23;83755;-68
2023/06/30 03:47:33;;;;;;;19.15;7.63;;;20.10;99.90;;;;;;6130868;23;82274;-69
2023/06/30 03:49:58;;;;;;;17.85;8.02;;;20.20;99.90;;;;;;6130057;23;82186;-68
2023/06/30 03:52:24;;;;;;;16.35;7.43;;;20.20;99.90;;;;;;6128125;23;84185;-71
2023/06/30 03:54:51;;;;;;;17.85;7.63;;;20.10;99.90;;;;;;6126821;23;83903;-70
2023/06/30 03:57:17;;;;;;;15.60;7.05;;;20.10;99.90;;;;;;6124924;23;82409;-68
2023/06/30 03:59:42;;;;;;;16.08;6.95;;;20.20;99.90;;;;;;6131141;23;82434;-69
2023/06/30 04:02:08;;;;;;;13.85;6.80;;;20.20;99.90;;;;;;6104508;23;85530;-71
2023/06/30 04:04:34;;;;;;;16.25;6.85;;;20.20;99.90;;;;;;6129157;23;82508;-71
2023/06/30 04:07:00;;;;;;;18.05;8.35;;;20.20;99.90;;;;;;6130388;23;82367;-71
2023/06/30 04:09:25;;;;;;;15.48;7.68;;;20.20;99.90;;;;;;6131874;23;81318;-71
2023/06/30 04:11:52;;;;;;;14.70;6.43;;;20.20;99.90;;;;;;6130963;23;83108;-71
2023/06/30 04:14:17;;;;;;;16.30;7.03;;;20.20;99.90;;;;;;6130138;23;82382;-70
2023/06/30 04:16:43;;;;;;;13.68;7.47;;;20.30;99.90;;;;;;6129724;23;83422;-72
2023/06/30 04:19:09;;;;;;;13.82;6.47;;;20.30;99.90;;;;;;6131317;23;82449;-70
2023/06/30 04:21:34;;;;;;;16.27;7.40;;;20.30;99.90;;;;;;6130830;23;82166;-72
2023/06/30 04:24:00;;;;;;;12.65;6.25;;;20.40;99.90;;;;;;6130673;23;83963;-71
2023/06/30 04:26:27;;;;;;;13.57;7.10;;;20.40;99.90;;;;;;6130427;23;82190;-72
2023/06/30 04:28:53;;;;;;;21.30;7.40;;;20.40;99.90;;;;;;6131371;23;82369;-72
2023/06/30 04:31:19;;;;;;;18.00;7.70;;;20.40;99.90;;;;;;6129909;23;83648;-70
2023/06/30 04:33:44;;;;;;;14.23;7.03;;;20.40;99.90;;;;;;6130317;23;81883;-70
2023/06/30 04:36:10;;;;;;;17.48;8.25;;;20.40;99.90;;;;;;6131230;23;82272;-72
2023/06/30 04:38:36;;;;;;;16.27;8.23;;;20.40;99.90;;;;;;6128249;23;82223;-73
2023/06/30 04:41:01;;;;;;;15.88;7.20;;;20.30;99.90;;;;;;6129407;23;84426;-70
2023/06/30 04:43:27;;;;;;;17.30;8.07;;;20.30;99.90;;;;;;6129475;23;82451;-71
2023/06/30 04:45:53;;;;;;;16.58;8.35;;;20.30;99.90;;;;;;6103875;23;82506;-72
2023/06/30 04:48:18;;;;;;;16.35;7.75;;;20.30;99.90;;;;;;6103838;23;82209;-73
2023/06/30 04:50:44;;;;;;;17.85;8.18;;;20.30;99.90;;;;;;6129425;23;82290;-71
2023/06/30 04:53:10;;;;;;;17.40;7.78;;;20.40;99.90;;;;;;6128745;23;82427;-72
2023/06/30 04:55:35;;;;;;;20.45;8.52;;;20.40;99.90;;;;;;6129649;23;82137;-71
2023/06/30 04:58:01;;;;;;;18.63;8.00;;;20.30;99.90;;;;;;6130957;23;81669;-72
2023/06/30 05:00:27;;;;;;;18.05;8.10;;;20.30;99.90;;;;;;6129224;23;83428;-72
2023/06/30 05:02:53;;;;;;;18.40;7.90;;;20.30;99.90;;;;;;6127468;23;82690;-72
2023/06/30 05:05:18;;;;;;;17.80;7.93;;;20.40;99.90;;;;;;6128891;23;83285;-72
2023/06/30 05:07:45;;;;;;;18.85;7.53;;;20.30;99.90;;;;;;6130196;23;82378;-71
2023/06/30 05:10:11;;;;;;;18.42;8.63;;;20.30;99.90;;;;;;6127884;23;83407;-71
2023/06/30 05:12:37;;;;;;;18.42;8.05;;;20.30;99.90;;;;;;6129238;23;83716;-70
2023/06/30 05:15:03;;;;;;;18.23;8.50;;;20.40;99.90;;;;;;6129579;23;82342;-71
2023/06/30 05:17:29;;;;;;;16.92;7.75;;;20.40;99.90;;;;;;6130181;23;82210;-70
2023/06/30 05:19:54;;;;;;;19.80;8.98;;;20.40;99.90;;;;;;6129639;23;82416;-71
2023/06/30 05:22:20;;;;;;;19.58;8.20;;;20.40;99.90;;;;;;6127623;23;84016;-72
2023/06/30 05:24:46;;;;;;;28.48;5.60;;;20.40;99.90;;;;;;6128135;23;82350;-71
2023/06/30 05:27:11;;;;;;;20.58;8.18;;;20.60;99.90;;;;;;6130937;23;82104;-74
2023/06/30 05:29:37;;;;;;;16.65;6.95;;;20.80;99.90;;;;;;6127526;23;83603;-72
2023/06/30 05:32:03;;;;;;;20.85;7.70;;;20.80;99.90;;;;;;6127853;23;84682;-65
2023/06/30 05:34:29;;;;;;;16.38;7.43;;;21.00;99.90;;;;;;6129667;23;82267;-66
2023/06/30 05:36:55;;;;;;;17.95;7.43;;;21.20;99.90;;;;;;6130525;23;81927;-66
2023/06/30 05:39:22;;;;;;;18.02;8.52;;;21.20;99.90;;;;;;6129821;23;83225;-66
2023/06/30 05:41:48;;;;;;;17.95;7.90;;;21.40;99.90;;;;;;6130204;23;83226;-65
2023/06/30 05:44:13;;;;;;;15.82;7.82;;;21.30;99.90;;;;;;6130514;23;82410;-65
2023/06/30 05:46:39;;;;;;;17.35;7.78;;;21.20;99.90;;;;;;6130610;23;81240;-66
2023/06/30 05:49:05;;;;;;;16.77;8.35;;;21.20;99.90;;;;;;6130141;23;82649;-65
2023/06/30 05:51:35;;;;;;;14.38;6.85;;;21.30;99.90;;;;;;6130374;23;83314;-66
2023/06/30 05:54:04;;;;;;;20.40;7.65;;;21.40;99.90;;;;;;6129946;23;83590;-66
2023/06/30 05:56:30;;;;;;;14.75;7.40;;;21.40;99.90;;;;;;6130696;23;82127;-66
2023/06/30 05:58:57;;;;;;;15.85;7.60;;;21.40;99.90;;;;;;6130865;23;83637;-65
2023/06/30 06:01:23;;;;;;;17.40;7.35;;;21.30;99.90;;;;;;6131106;23;83398;-65
2023/06/30 06:03:49;;;;;;;15.40;7.47;;;21.30;99.90;;;;;;6131786;23;81944;-66
2023/06/30 06:06:15;;;;;;;16.90;7.55;;;21.30;99.90;;;;;;6131464;23;82075;-65
2023/06/30 06:08:46;;;;;;;15.02;7.75;;;21.40;99.90;;;;;;6128833;23;83010;-66
2023/06/30 06:11:12;;;;;;;16.10;7.55;;;21.40;99.90;;;;;;6128252;23;82587;-65
2023/06/30 06:13:39;;;;;;;14.25;6.97;;;21.40;99.90;;;;;;6128541;23;82224;-66
2023/06/30 06:16:06;;;;;;;16.08;7.82;;;21.40;99.90;;;;;;6128526;23;82393;-66
2023/06/30 06:18:32;;;;;;;15.65;7.00;;;21.50;99.90;;;;;;6120417;23;84719;-66
2023/06/30 06:20:59;;;;;;;16.38;7.32;;;21.60;99.90;;;;;;6124166;23;84201;-65
2023/06/30 06:23:25;;;;;;;16.75;7.10;;;21.70;99.90;;;;;;6126387;23;82157;-66
2023/06/30 06:25:51;;;;;;;15.40;7.38;;;21.90;99.90;;;;;;6124124;23;82277;-66
2023/06/30 06:28:17;;;;;;;15.30;7.18;;;21.90;99.90;;;;;;6124785;23;83339;-66
2023/06/30 06:30:43;;;;;;;17.15;8.05;;;22.00;99.90;;;;;;6125653;23;82252;-65
2023/06/30 06:33:09;;;;;;;16.40;7.88;;;22.10;99.90;;;;;;6127214;23;82468;-65
2023/06/30 06:35:35;;;;;;;16.45;7.43;;;22.10;99.90;;;;;;6128299;23;81729;-67
2023/06/30 06:38:00;;;;;;;15.63;7.60;;;22.30;99.90;;;;;;6128026;23;84284;-67
2023/06/30 06:40:28;;;;;;;15.63;7.85;;;22.40;99.90;;;;;;6127042;23;81926;-66
2023/06/30 06:42:55;;;;;;;17.10;7.00;;;22.50;98.80;;;;;;6128881;23;83353;-65
2023/06/30 06:45:21;;;;;;;17.08;8.50;;;22.60;96.30;;;;;;6129217;23;82438;-65
2023/06/30 06:48:19;;;;;;;18.67;8.73;;;22.60;96.70;;;;;;6128320;23;82678;-66
2023/06/30 06:50:46;;;;;;;19.55;9.48;;;22.70;96.10;;;;;;6128927;23;82664;-66
2023/06/30 06:53:18;;;;;;;18.48;9.10;;;22.70;96.40;;;;;;6128301;23;82570;-65
2023/06/30 06:55:45;;;;;;;17.25;8.57;;;22.70;95.50;;;;;;6129323;23;82482;-67
2023/06/30 06:58:10;;;;;;;18.60;8.75;;;22.60;96.40;;;;;;6125531;23;83165;-66
2023/06/30 07:00:36;;;;;;;16.15;8.77;;;22.60;95.40;;;;;;6119484;23;81533;-66
2023/06/30 07:03:03;;;;;;;17.10;8.27;;;22.60;95.00;;;;;;6129314;23;82274;-65
2023/06/30 07:05:29;;;;;;;18.58;9.43;;;22.60;95.90;;;;;;6128369;23;82516;-67
2023/06/30 07:07:55;;;;;;;18.75;9.35;;;22.60;96.40;;;;;;6128968;23;84191;-66
2023/06/30 07:10:20;;;;;;;19.73;9.07;;;22.60;95.50;;;;;;6101964;23;85008;-66
2023/06/30 07:12:46;;;;;;;23.38;8.73;;;22.60;95.60;;;;;;6128268;23;82104;-66
2023/06/30 07:15:12;;;;;;;18.63;8.90;;;22.60;95.40;;;;;;6125194;23;82320;-66
2023/06/30 07:17:37;;;;;;;17.60;8.35;;;22.60;95.40;;;;;;6129042;23;83023;-66
2023/06/30 07:20:03;;;;;;;17.85;8.60;;;22.60;94.10;;;;;;6130409;23;82440;-71
2023/06/30 07:22:29;;;;;;;23.88;8.63;;;22.40;95.00;;;;;;6129625;23;81980;-72
2023/06/30 07:24:55;;;;;;;15.85;7.97;;;22.30;95.20;;;;;;6123059;23;82703;-73
2023/06/30 07:27:21;;;;;;;15.55;7.72;;;22.20;96.30;;;;;;6129885;23;83002;-72
2023/06/30 07:29:49;;;;;;;20.13;8.13;;;22.20;97.90;;;;;;6103593;23;84469;-71
2023/06/30 07:32:15;;;;;;;18.55;8.82;;;22.30;97.60;;;;;;6124867;23;83793;-72
2023/06/30 07:34:40;;;;;;;19.10;9.48;;;22.20;97.90;;;;;;6096141;23;82419;-72
2023/06/30 07:37:07;;;;;;;18.83;9.52;;;22.10;98.60;;;;;;6129820;23;82857;-70
2023/06/30 07:39:34;;;;;;;20.08;9.07;;;22.20;97.90;;;;;;6131045;23;83123;-71
2023/06/30 07:42:00;;;;;;;35.05;9.40;;;22.20;97.30;;;;;;6130445;23;82091;-71
2023/06/30 07:44:25;;;;;;;27.27;9.00;;;22.10;97.70;;;;;;6130309;23;82275;-70
2023/06/30 07:46:51;;;;;;;17.60;8.13;;;22.10;97.80;;;;;;6130316;23;82881;-71
2023/06/30 07:49:17;;;;;;;21.67;8.38;;;22.10;98.00;;;;;;6130813;23;82896;-70
2023/06/30 07:51:43;;;;;;;19.27;8.75;;;22.00;99.10;;;;;;6130617;23;84164;-71
2023/06/30 07:54:08;;;;;;;18.05;7.72;;;22.10;99.10;;;;;;6130552;23;82370;-72
2023/06/30 07:56:34;;;;;;;19.38;8.65;;;22.00;99.50;;;;;;6129618;23;84217;-71
2023/06/30 07:59:00;;;;;;;19.63;8.40;;;22.00;99.90;;;;;;6131111;23;83752;-69
2023/06/30 08:01:26;;;;;;;18.92;9.40;;;22.00;99.90;;;;;;6130350;23;82221;-70
2023/06/30 08:03:52;;;;;;;16.30;7.50;;;22.00;99.40;;;;;;6130671;23;82204;-70
2023/06/30 08:06:18;;;;;;;17.25;7.13;;;21.90;99.90;;;;;;6130295;23;83183;-69
2023/06/30 08:08:43;;;;;;;19.23;7.97;;;21.80;99.90;;;;;;6130742;23;83271;-72
2023/06/30 08:11:09;;;;;;;16.27;8.00;;;21.90;99.90;;;;;;6130408;23;82240;-71
2023/06/30 08:13:35;;;;;;;16.60;8.25;;;21.80;99.90;;;;;;6131189;23;81246;-70
2023/06/30 08:16:01;;;;;;;17.75;8.65;;;21.80;99.90;;;;;;6127249;23;82790;-72
2023/06/30 08:18:30;;;;;;;18.55;8.40;;;21.80;99.90;;;;;;6129037;23;82333;-72
2023/06/30 08:20:57;;;;;;;19.15;8.88;;;21.80;99.90;;;;;;6125643;23;83154;-71
2023/06/30 08:23:23;;;;;;;17.05;7.82;;;21.80;99.90;;;;;;6130913;23;82182;-70
2023/06/30 08:25:49;;;;;;;18.52;8.45;;;21.80;99.90;;;;;;6130470;23;82293;-70
2023/06/30 08:28:14;;;;;;;21.25;8.73;;;21.80;99.90;;;;;;6126993;23;83030;-70
2023/06/30 08:30:40;;;;;;;19.08;7.80;;;21.90;99.90;;;;;;6130751;23;82462;-71
2023/06/30 08:33:06;;;;;;;18.50;7.85;;;21.90;99.90;;;;;;6104410;23;82454;-71
2023/06/30 08:35:31;;;;;;;24.38;8.57;;;21.80;99.90;;;;;;6129574;23;82381;-70
2023/06/30 08:37:57;;;;;;;13.50;6.07;;;21.90;99.90;;;;;;6103498;23;82998;-70
2023/06/30 08:40:26;;;;;;;15.95;6.88;;;21.90;94.60;;;;;;6130450;23;82487;-71
2023/06/30 08:42:53;;;;;;;16.27;7.28;;;22.00;95.20;;;;;;6130282;23;82269;-71
2023/06/30 08:45:23;;;;;;;13.30;7.07;;;22.00;94.90;;;;;;6129581;23;84894;-70
2023/06/30 08:47:49;;;;;;;14.25;6.75;;;22.10;95.30;;;;;;6129959;23;85696;-70
2023/06/30 08:50:15;;;;;;;17.58;6.65;;;22.20;94.90;;;;;;6101875;23;82929;-72
2023/06/30 08:52:41;;;;;;;16.02;7.95;;;22.20;94.40;;;;;;6129243;23;82061;-70
2023/06/30 08:55:09;;;;;;;15.70;6.85;;;22.30;93.20;;;;;;6129164;23;82656;-70
2023/06/30 08:57:36;;;;;;;15.38;6.82;;;22.40;92.50;;;;;;6127423;23;83376;-71
2023/06/30 09:00:01;;;;;;;13.95;6.75;;;22.50;93.10;;;;;;6129186;23;82342;-71
2023/06/30 09:02:28;;;;;;;17.45;7.93;;;22.50;91.80;;;;;;6129994;23;82059;-69
2023/06/30 09:04:55;;;;;;;15.95;7.63;;;22.40;90.30;;;;;;6129675;23;83480;-70
2023/06/30 09:07:27;;;;;;;15.48;7.78;;;22.30;91.00;;;;;;6129340;23;82339;-70
2023/06/30 09:09:56;;;;;;;14.90;7.60;;;22.10;91.40;;;;;;6129278;23;83028;-70
2023/06/30 09:12:24;;;;;;;14.82;7.28;;;22.00;92.80;;;;;;6130377;23;82415;-70
2023/06/30 09:14:53;;;;;;;15.30;7.18;;;22.00;92.40;;;;;;6129252;23;83241;-70
2023/06/30 09:17:19;;;;;;;16.00;6.82;;;22.00;91.60;;;;;;6129131;23;82425;-71
2023/06/30 09:19:45;;;;;;;10.35;5.38;;;22.10;90.00;;;;;;6130291;23;81982;-71
2023/06/30 09:22:11;;;;;;;13.20;6.80;;;22.30;90.30;;;;;;6130729;23;82104;-73
2023/06/30 09:24:37;;;;;;;16.20;6.88;;;22.50;90.60;;;;;;6120282;23;83054;-71
2023/06/30 09:27:02;;;;;;;13.07;5.88;;;22.40;90.40;;;;;;6125801;23;83358;-71
2023/06/30 09:29:34;;;;;;;11.52;5.82;;;22.40;89.10;;;;;;6129174;23;82207;-71
2023/06/30 09:32:03;;;;;;;11.45;5.93;;;22.40;87.40;;;;;;6130448;23;82287;-71
2023/06/30 09:34:29;;;;;;;12.73;6.22;;;22.50;86.10;;;;;;6129318;23;83325;-71
2023/06/30 09:36:55;;;;;;;11.85;5.53;;;22.60;85.60;;;;;;6130154;23;84630;-71
2023/06/30 09:39:22;;;;;;;12.93;6.43;;;22.80;83.60;;;;;;6130211;23;81932;-71
2023/06/30 09:41:49;;;;;;;12.32;5.47;;;22.70;82.70;;;;;;6130629;23;81975;-71
2023/06/30 09:44:20;;;;;;;14.13;5.95;;;22.60;84.70;;;;;;6130122;23;82728;-71
2023/06/30 09:46:50;;;;;;;13.40;6.40;;;22.90;83.10;;;;;;6130304;23;82390;-71
2023/06/30 09:49:32;;;;;;;15.10;6.35;;;23.10;80.00;;;;;;6130807;23;82496;-71
2023/06/30 09:51:59;;;;;;;12.15;6.22;;;23.40;81.30;;;;;;6130570;23;81666;-71
2023/06/30 09:54:26;;;;;;;14.52;6.78;;;23.50;82.50;;;;;;6130313;23;82933;-70
2023/06/30 09:56:59;;;;;;;12.82;6.40;;;23.60;81.10;;;;;;6130121;23;83822;-71
2023/06/30 09:59:25;;;;;;;13.90;6.18;;;23.90;80.10;;;;;;6129882;23;84373;-71
2023/06/30 10:01:58;;;;;;;12.18;5.95;;;24.20;80.30;;;;;;6129593;23;82120;-71
2023/06/30 10:04:25;;;;;;;12.30;6.03;;;24.80;77.30;;;;;;6129125;23;82228;-71
2023/06/30 10:06:52;;;;;;;16.38;7.80;;;25.20;75.90;;;;;;6130260;23;82792;-71
2023/06/30 10:09:23;;;;;;;19.48;7.35;;;25.40;75.30;;;;;;6122636;23;82334;-68
2023/06/30 10:11:54;;;;;;;17.20;7.20;;;25.60;74.30;;;;;;6122675;23;82456;-70
2023/06/30 10:14:28;;;;;;;17.10;7.05;;;25.60;73.00;;;;;;6126208;23;83302;-72
2023/06/30 10:17:00;;;;;;;18.05;6.80;;;25.70;73.70;;;;;;6123704;23;82682;-70
2023/06/30 10:19:27;;;;;;;14.02;7.10;;;25.50;72.80;;;;;;6127193;23;82633;-70
2023/06/30 10:21:54;;;;;;;18.70;7.93;;;25.60;71.50;;;;;;6127661;23;82157;-71
2023/06/30 10:24:25;;;;;;;16.67;7.75;;;25.50;71.30;;;;;;6124544;23;84390;-71
2023/06/30 10:26:53;;;;;;;21.58;8.02;;;25.50;72.20;;;;;;6098226;23;83577;-70
2023/06/30 10:29:20;;;;;;;16.65;7.90;;;25.60;71.60;;;;;;6126079;23;82187;-69
2023/06/30 10:31:45;;;;;;;17.75;8.82;;;25.60;71.80;;;;;;6125334;23;82791;-70
2023/06/30 10:34:12;;;;;;;18.38;7.45;;;25.70;71.00;;;;;;6125893;23;83166;-70
2023/06/30 10:36:39;;;;;;;15.90;7.22;;;25.70;70.40;;;;;;6126597;23;82598;-70
2023/06/30 10:39:05;;;;;;;15.50;7.30;;;26.00;69.60;;;;;;6127205;23;82572;-70
2023/06/30 10:41:50;;;;;;;18.27;8.15;;;26.10;69.10;;;;;;6129819;23;81842;-70
2023/06/30 10:44:19;;;;;;;15.25;7.43;;;26.20;69.90;;;;;;6129395;23;82970;-69
2023/06/30 10:46:48;;;;;;;15.38;7.25;;;26.20;69.70;;;;;;6128229;23;82887;-71
2023/06/30 10:49:17;;;;;;;16.30;7.28;;;26.30;68.90;;;;;;6101738;23;83310;-71
2023/06/30 10:51:50;;;;;;;15.30;7.20;;;26.40;67.90;;;;;;6122473;23;82645;-71
2023/06/30 10:54:24;;;;;;;16.77;8.73;;;26.50;68.20;;;;;;6125534;23;83681;-71
2023/06/30 10:56:51;;;;;;;17.85;8.55;;;26.60;67.70;;;;;;6125347;23;82192;-71
2023/06/30 10:59:24;;;;;;;19.02;8.77;;;26.50;69.00;;;;;;6119357;23;82457;-70
2023/06/30 11:02:12;;;;;;;18.08;8.82;;;26.40;68.40;;;;;;6124106;23;82539;-71
2023/06/30 11:04:41;;;;;;;16.15;7.78;;;26.20;67.10;;;;;;6123981;23;83557;-71
2023/06/30 11:07:10;;;;;;;15.82;6.97;;;26.20;68.70;;;;;;6098502;23;83150;-72
2023/06/30 11:09:47;;;;;;;14.82;7.47;;;26.40;67.50;;;;;;6125576;23;82189;-71
2023/06/30 11:12:24;;;;;;;19.27;10.45;;;26.20;67.70;;;;;;6125167;23;82292;-71
2023/06/30 11:14:56;;;;;;;15.52;7.55;;;26.10;67.60;;;;;;6123379;23;84044;-70
2023/06/30 11:17:23;;;;;;;15.60;8.73;;;26.10;68.00;;;;;;6124722;23;82717;-71
2023/06/30 11:20:15;;;;;;;16.42;8.52;;;26.30;67.40;;;;;;6124718;23;82250;-71
2023/06/30 11:22:54;;;;;;;18.02;8.05;;;26.30;68.20;;;;;;6122372;23;82602;-71
2023/06/30 11:25:19;;;;;;;15.20;7.47;;;26.40;68.40;;;;;;6123046;23;82260;-70
2023/06/30 11:27:45;;;;;;;15.63;8.23;;;26.30;68.20;;;;;;6126831;23;82320;-71
2023/06/30 11:30:16;;;;;;;16.13;8.85;;;26.20;68.50;;;;;;6123793;23;83800;-71
2023/06/30 11:32:41;;;;;;;16.77;8.23;;;26.40;68.00;;;;;;6129656;23;81710;-71
2023/06/30 11:35:11;;;;;;;24.05;8.52;;;26.50;67.90;;;;;;6129687;23;82498;-71
2023/06/30 11:37:37;;;;;;;15.57;7.38;;;26.50;68.10;;;;;;6129145;23;83620;-71
2023/06/30 11:40:06;;;;;;;17.65;9.43;;;26.50;67.20;;;;;;6127260;23;83296;-71
2023/06/30 11:42:35;;;;;;;18.02;7.45;;;26.70;67.70;;;;;;6128540;23;82175;-71
2023/06/30 11:45:02;;;;;;;18.23;8.88;;;26.80;66.60;;;;;;6128828;23;83494;-71
2023/06/30 11:47:28;;;;;;;13.75;7.65;;;26.80;68.00;;;;;;6128294;23;82129;-72
2023/06/30 11:49:54;;;;;;;13.80;8.13;;;26.80;66.90;;;;;;6127615;23;82386;-71
2023/06/30 11:52:20;;;;;;;15.25;7.53;;;26.80;67.70;;;;;;6124554;23;82374;-71
2023/06/30 11:54:45;;;;;;;31.45;9.55;;;26.70;66.60;;;;;;6125484;23;83378;-71
2023/06/30 11:57:11;;;;;;;17.42;9.55;;;26.40;66.10;;;;;;6126544;23;81924;-71
2023/06/30 11:59:37;;;;;;;18.63;9.68;;;26.30;66.90;;;;;;6124880;23;82474;-71
2023/06/30 12:02:03;;;;;;;16.70;8.82;;;26.20;66.10;;;;;;6098638;23;81956;-70
2023/06/30 12:04:35;;;;;;;19.17;9.13;;;26.30;66.80;;;;;;6122046;23;84256;-71
2023/06/30 12:07:05;;;;;;;19.45;11.63;;;26.20;67.10;;;;;;6125491;23;84159;-71
2023/06/30 12:09:32;;;;;;;24.08;11.95;;;26.20;66.50;;;;;;6120505;23;82919;-71
2023/06/30 12:11:58;;;;;;;19.98;10.98;;;26.00;65.70;;;;;;6122483;23;83071;-71
2023/06/30 12:14:28;;;;;;;20.60;11.18;;;25.70;66.40;;;;;;6122278;23;83345;-71
2023/06/30 12:16:54;;;;;;;19.40;8.90;;;25.60;66.80;;;;;;6122475;23;84473;-71
2023/06/30 12:19:27;;;;;;;17.25;8.93;;;25.40;67.70;;;;;;6125940;23;82919;-71
2023/06/30 12:22:06;;;;;;;13.35;7.28;;;25.40;65.30;;;;;;6125556;23;81618;-71
2023/06/30 12:24:34;;;;;;;13.73;7.35;;;25.40;65.70;;;;;;6095559;23;85805;-71
2023/06/30 12:27:03;;;;;;;12.63;7.03;;;25.50;66.00;;;;;;6126253;23;82300;-71
2023/06/30 12:29:30;;;;;;;13.55;7.43;;;25.60;66.40;;;;;;6124533;23;83181;-71
2023/06/30 12:31:56;;;;;;;20.45;9.40;;;26.00;66.70;;;;;;6118128;23;82196;-71
2023/06/30 12:34:32;;;;;;;15.73;8.18;;;26.20;64.80;;;;;;6125121;23;83225;-70
2023/06/30 12:36:58;;;;;;;14.85;8.35;;;26.30;65.10;;;;;;6125833;23;82408;-73
2023/06/30 12:39:24;;;;;;;17.67;9.05;;;26.60;63.80;;;;;;6125682;23;82389;-71
2023/06/30 12:41:49;;;;;;;18.08;9.07;;;26.80;63.20;;;;;;6126032;23;82189;-74
2023/06/30 12:44:15;;;;;;;14.90;8.25;;;27.10;63.00;;;;;;6125333;23;82854;-73
2023/06/30 12:46:41;;;;;;;18.20;9.20;;;27.20;60.90;;;;;;6126496;23;82797;-72
2023/06/30 12:49:07;;;;;;;15.60;7.85;;;27.10;60.40;;;;;;6125279;23;82555;-72
2023/06/30 12:51:33;;;;;;;15.75;7.50;;;27.20;62.80;;;;;;6121538;23;82544;-71
2023/06/30 12:53:59;;;;;;;17.55;9.15;;;27.50;62.90;;;;;;6123185;23;84342;-73
2023/06/30 12:56:25;;;;;;;17.40;8.98;;;27.70;60.60;;;;;;6123581;23;83110;-72
2023/06/30 12:58:50;;;;;;;17.52;9.55;;;27.70;60.80;;;;;;6125477;23;82557;-70
2023/06/30 13:01:16;;;;;;;17.13;8.70;;;27.70;59.20;;;;;;6125080;23;82490;-71
2023/06/30 13:03:43;;;;;;;14.07;7.03;;;27.70;60.20;;;;;;6098721;23;85142;-74
2023/06/30 13:06:18;;;;;;;13.70;6.70;;;27.90;60.90;;;;;;6124117;23;82590;-69
2023/06/30 13:08:47;;;;;;;12.00;5.85;;;28.00;58.30;;;;;;6122795;23;82403;-70
2023/06/30 13:11:13;;;;;;;10.63;5.80;;;28.00;60.10;;;;;;6126550;23;81255;-70
2023/06/30 13:13:38;;;;;;;9.85;5.60;;;27.90;60.20;;;;;;6127556;23;83039;-72
2023/06/30 13:16:04;;;;;;;10.35;5.13;;;27.90;60.30;;;;;;6125920;23;83170;-71
2023/06/30 13:18:30;;;;;;;10.10;6.47;;;27.70;62.30;;;;;;6127792;23;83312;-71
2023/06/30 13:20:56;;;;;;;9.23;4.68;;;27.70;62.30;;;;;;6128489;23;82245;-72
2023/06/30 13:23:21;;;;;;;9.23;4.93;;;27.70;63.00;;;;;;6128423;23;83025;-71
2023/06/30 13:25:47;;;;;;;9.13;5.50;;;27.70;62.60;;;;;;6126422;23;82997;-71
2023/06/30 13:28:13;;;;;;;12.68;6.32;;;27.70;61.50;;;;;;6127851;23;82483;-72
2023/06/30 13:30:38;;;;;;;10.73;5.90;;;27.60;59.70;;;;;;6128339;23;82473;-71
2023/06/30 13:33:05;;;;;;;10.52;5.95;;;27.50;59.70;;;;;;6127751;23;83021;-71
2023/06/30 13:35:30;;;;;;;10.75;5.43;;;27.50;58.70;;;;;;6124859;23;82018;-71
2023/06/30 13:37:56;;;;;;;11.05;5.22;;;27.50;59.00;;;;;;6127005;23;82608;-72
2023/06/30 13:40:23;;;;;;;12.70;6.07;;;27.40;59.50;;;;;;6127619;23;82421;-71
2023/06/30 13:42:49;;;;;;;12.73;6.15;;;27.40;58.90;;;;;;6125712;23;84686;-71
2023/06/30 13:45:16;;;;;;;13.13;6.03;;;27.60;60.80;;;;;;6127471;23;83206;-71
2023/06/30 13:47:41;;;;;;;12.05;6.18;;;27.80;56.30;;;;;;6127611;23;82246;-72
2023/06/30 13:50:08;;;;;;;15.45;6.93;;;27.70;55.90;;;;;;6127707;23;82250;-71
2023/06/30 13:52:33;;;;;;;11.82;7.28;;;27.70;57.20;;;;;;6126618;23;83580;-71
2023/06/30 13:54:59;;;;;;;12.85;6.82;;;27.50;55.60;;;;;;6127092;23;82669;-71
2023/06/30 13:57:25;;;;;;;13.25;6.50;;;27.40;57.60;;;;;;6127081;23;82155;-72
2023/06/30 13:59:50;;;;;;;13.55;7.70;;;27.40;57.50;;;;;;6128849;23;81463;-71
2023/06/30 14:02:16;;;;;;;14.00;7.57;;;27.20;55.70;;;;;;6126317;23;82906;-71
2023/06/30 14:04:41;;;;;;;16.13;8.30;;;27.00;55.80;;;;;;6126816;23;83423;-72
2023/06/30 14:07:07;;;;;;;13.95;7.95;;;27.10;55.90;;;;;;6124584;23;83573;-72
2023/06/30 14:09:33;;;;;;;14.82;8.45;;;27.00;55.40;;;;;;6127788;23;82363;-72
2023/06/30 14:11:59;;;;;;;25.20;8.90;;;26.80;55.70;;;;;;6127755;23;82418;-71
2023/06/30 14:14:24;;;;;;;16.98;8.77;;;26.80;58.50;;;;;;6127171;23;83219;-70
2023/06/30 14:16:50;;;;;;;12.85;7.97;;;26.80;57.70;;;;;;6127376;23;82279;-70
2023/06/30 14:19:16;;;;;;;14.93;8.30;;;26.80;57.30;;;;;;6128674;23;82381;-70
2023/06/30 14:21:41;;;;;;;14.52;7.80;;;26.80;57.60;;;;;;6128721;23;83057;-70
2023/06/30 14:24:08;;;;;;;15.40;8.30;;;26.80;57.00;;;;;;6128654;23;82295;-71
2023/06/30 14:26:35;;;;;;;17.73;8.57;;;26.80;56.20;;;;;;6128287;23;82349;-72
2023/06/30 14:29:00;;;;;;;15.18;8.43;;;26.70;56.50;;;;;;6128299;23;81879;-70
2023/06/30 14:31:26;;;;;;;16.88;8.95;;;26.60;58.20;;;;;;6127791;23;84074;-70
2023/06/30 14:33:52;;;;;;;15.90;8.85;;;26.40;58.40;;;;;;6128627;23;84144;-71
2023/06/30 14:36:17;;;;;;;15.38;8.20;;;26.40;58.30;;;;;;6128033;23;82390;-70
2023/06/30 14:38:43;;;;;;;17.27;8.73;;;26.40;58.80;;;;;;6128496;23;81929;-70
2023/06/30 14:41:09;;;;;;;17.45;8.02;;;26.30;60.30;;;;;;6129238;23;83030;-72
2023/06/30 14:43:34;;;;;;;15.15;7.95;;;26.30;59.80;;;;;;6128177;23;83427;-71
2023/06/30 14:46:00;;;;;;;16.42;9.45;;;26.30;59.50;;;;;;6129137;23;82321;-71
2023/06/30 14:48:26;;;;;;;17.98;8.90;;;26.30;59.20;;;;;;6128523;23;81735;-71
2023/06/30 14:50:51;;;;;;;20.70;9.88;;;26.30;60.10;;;;;;6127811;23;82595;-71
2023/06/30 14:53:17;;;;;;;16.80;9.57;;;26.40;59.50;;;;;;6128668;23;82754;-73
2023/06/30 14:55:43;;;;;;;17.50;8.90;;;26.40;58.70;;;;;;6127809;23;83307;-70
2023/06/30 14:58:08;;;;;;;18.08;9.20;;;26.40;59.70;;;;;;6129824;23;81900;-71
2023/06/30 15:00:34;;;;;;;18.45;10.30;;;26.20;59.60;;;;;;6127119;23;82650;-71
2023/06/30 15:03:00;;;;;;;16.83;9.93;;;26.10;60.00;;;;;;6127261;23;83736;-70
2023/06/30 15:05:30;;;;;;;19.33;9.45;;;26.10;60.60;;;;;;6129181;23;83594;-71
2023/06/30 15:07:56;;;;;;;18.27;9.55;;;26.30;60.40;;;;;;6127688;23;82499;-70
2023/06/30 15:10:22;;;;;;;19.42;9.25;;;26.20;61.00;;;;;;6129300;23;82467;-71
2023/06/30 15:12:48;;;;;;;17.08;9.27;;;26.20;60.40;;;;;;6128345;23;82323;-71
2023/06/30 15:15:14;;;;;;;17.30;9.40;;;26.30;61.20;;;;;;6126607;23;82338;-71
2023/06/30 15:17:39;;;;;;;17.55;9.23;;;26.30;60.60;;;;;;6127890;22;82323;-71
2023/06/30 15:20:06;;;;;;;18.42;9.60;;;26.30;60.50;;;;;;6127553;23;83866;-71
2023/06/30 15:22:32;;;;;;;20.25;9.65;;;26.40;60.60;;;;;;6127259;23;83890;-70
2023/06/30 15:24:58;;;;;;;17.67;10.00;;;26.30;61.40;;;;;;6128983;23;82113;-72
2023/06/30 15:27:25;;;;;;;15.75;7.80;;;26.20;63.80;;;;;;6126399;23;83126;-71
2023/06/30 15:29:51;;;;;;;14.30;7.63;;;25.90;64.60;;;;;;6127213;23;83542;-71
2023/06/30 15:32:18;;;;;;;15.38;7.78;;;25.50;66.10;;;;;;6128038;23;82543;-70
2023/06/30 15:34:43;;;;;;;15.75;7.97;;;25.20;67.40;;;;;;6128038;23;83847;-72
2023/06/30 15:37:09;;;;;;;16.25;8.30;;;24.90;68.70;;;;;;6128730;23;81599;-70
2023/06/30 15:39:35;;;;;;;20.55;8.15;;;24.60;69.40;;;;;;6127959;23;82717;-72
2023/06/30 15:42:01;;;;;;;15.82;7.72;;;24.10;70.40;;;;;;6127747;23;82678;-71
2023/06/30 15:44:27;;;;;;;20.98;8.25;;;23.90;71.30;;;;;;6127979;23;83279;-70
2023/06/30 15:46:53;;;;;;;20.10;7.57;;;23.50;73.30;;;;;;6100553;23;82278;-70
2023/06/30 15:49:19;;;;;;;16.25;7.50;;;23.30;75.30;;;;;;6128029;23;83097;-70
2023/06/30 15:51:44;;;;;;;18.10;7.57;;;23.20;77.50;;;;;;6128585;23;82413;-71